createdAt,value
2023-08-16T00:01:48.237Z,5.20
2023-08-16T00:04:15.513Z,12.57
2023-08-16T00:06:43.968Z,7.93
2023-08-16T00:09:11.236Z,5.18
2023-08-16T00:11:39.128Z,6.63
2023-08-16T00:14:06.299Z,6.67
2023-08-16T00:16:33.487Z,6.03
2023-08-16T00:19:00.894Z,7.40
2023-08-16T00:21:28.234Z,9.10
2023-08-16T00:23:55.561Z,12.63
2023-08-16T00:26:22.688Z,5.07
2023-08-16T00:28:49.933Z,7.57
2023-08-16T00:31:17.401Z,6.20
2023-08-16T00:33:44.572Z,5.70
2023-08-16T00:36:11.672Z,8.10
2023-08-16T00:38:43.732Z,6.83
2023-08-16T00:41:11.866Z,6.27
2023-08-16T00:43:39.124Z,7.13
2023-08-16T00:46:07.661Z,9.87
2023-08-16T00:48:35.197Z,7.03
2023-08-16T00:51:02.740Z,8.47
2023-08-16T00:53:32.194Z,8.23
2023-08-16T00:55:59.676Z,7.90
2023-08-16T00:58:27.838Z,7.17
2023-08-16T01:00:55.103Z,10.10
2023-08-16T01:03:23.111Z,10.40
2023-08-16T01:05:50.260Z,6.80
2023-08-16T01:08:17.654Z,9.03
2023-08-16T01:10:52.457Z,6.40
2023-08-16T01:13:38.283Z,6.17
2023-08-16T01:16:10.529Z,8.30
2023-08-16T01:18:47.011Z,5.20
2023-08-16T01:21:15.192Z,7.40
2023-08-16T01:23:48.287Z,8.30
2023-08-16T01:26:18.599Z,6.27
2023-08-16T01:28:46.268Z,7.50
2023-08-16T01:31:13.937Z,7.97
2023-08-16T01:33:41.016Z,6.47
2023-08-16T01:36:08.582Z,12.10
2023-08-16T01:38:35.739Z,9.23
2023-08-16T01:41:05.875Z,8.07
2023-08-16T01:43:33.467Z,5.97
2023-08-16T01:46:01.482Z,5.87
2023-08-16T01:48:29.436Z,6.33
2023-08-16T01:50:56.783Z,7.53
2023-08-16T01:53:24.263Z,14.40
2023-08-16T01:55:53.538Z,8.67
2023-08-16T01:58:20.674Z,7.23
2023-08-16T02:00:48.049Z,9.83
2023-08-16T02:03:15.242Z,5.93
2023-08-16T02:05:44.072Z,6.30
2023-08-16T02:08:11.819Z,5.67
2023-08-16T02:10:38.921Z,10.43
2023-08-16T02:13:06.186Z,9.20
2023-08-16T02:15:33.620Z,8.97
2023-08-16T02:18:00.884Z,9.13
2023-08-16T02:20:28.080Z,8.03
2023-08-16T02:22:55.228Z,8.00
2023-08-16T02:25:22.410Z,8.23
2023-08-16T02:27:49.535Z,8.37
2023-08-16T02:30:16.763Z,11.47
2023-08-16T02:32:44.035Z,10.33
2023-08-16T02:35:11.258Z,11.93
2023-08-16T02:37:38.543Z,9.53
2023-08-16T02:40:05.920Z,12.33
2023-08-16T02:42:33.033Z,8.40
2023-08-16T02:45:00.210Z,11.68
2023-08-16T02:47:27.569Z,9.00
2023-08-16T02:49:54.836Z,11.77
2023-08-16T02:52:22.006Z,9.83
2023-08-16T02:54:49.284Z,9.73
2023-08-16T02:57:17.896Z,9.57
2023-08-16T02:59:48.684Z,10.20
2023-08-16T03:02:16.455Z,9.30
2023-08-16T03:04:43.822Z,13.53
2023-08-16T03:07:11.589Z,12.30
2023-08-16T03:09:39.072Z,12.90
2023-08-16T03:12:06.720Z,10.10
2023-08-16T03:14:34.264Z,10.97
2023-08-16T03:17:01.639Z,10.43
2023-08-16T03:19:28.833Z,10.30
2023-08-16T03:21:57.887Z,10.93
2023-08-16T03:24:25.066Z,12.50
2023-08-16T03:26:52.238Z,15.30
2023-08-16T03:29:19.702Z,14.00
2023-08-16T03:31:47.666Z,10.33
2023-08-16T03:34:15.151Z,10.40
2023-08-16T03:36:42.351Z,12.33
2023-08-16T03:39:09.458Z,13.10
2023-08-16T03:41:38.206Z,12.87
2023-08-16T03:44:07.426Z,10.83
2023-08-16T03:46:35.695Z,9.80
2023-08-16T03:49:03.098Z,14.37
2023-08-16T03:51:30.204Z,11.37
2023-08-16T03:53:57.290Z,10.33
2023-08-16T03:56:24.782Z,12.15
2023-08-16T03:58:51.852Z,13.00
2023-08-16T04:01:19.269Z,12.75
2023-08-16T04:03:47.408Z,10.82
2023-08-16T04:06:14.855Z,10.32
2023-08-16T04:08:41.950Z,12.48
2023-08-16T04:11:09.089Z,10.50
2023-08-16T04:13:36.210Z,10.87
2023-08-16T04:16:03.391Z,14.53
2023-08-16T04:18:30.689Z,12.20
2023-08-16T04:20:58.175Z,11.33
2023-08-16T04:23:25.453Z,10.50
2023-08-16T04:25:52.641Z,13.57
2023-08-16T04:28:19.854Z,15.57
2023-08-16T04:30:47.257Z,15.20
2023-08-16T04:33:14.381Z,12.03
2023-08-16T04:35:41.963Z,13.60
2023-08-16T04:38:10.111Z,12.40
2023-08-16T04:40:37.302Z,19.77
2023-08-16T04:43:04.556Z,11.63
2023-08-16T04:45:31.668Z,14.30
2023-08-16T04:47:58.921Z,13.67
2023-08-16T04:50:26.062Z,16.90
2023-08-16T04:52:53.190Z,13.43
2023-08-16T04:55:20.310Z,14.07
2023-08-16T04:57:50.293Z,11.13
2023-08-16T05:00:18.797Z,11.50
2023-08-16T05:02:45.951Z,11.67
2023-08-16T05:05:13.192Z,11.43
2023-08-16T05:07:40.389Z,13.03
2023-08-16T05:10:07.786Z,18.17
2023-08-16T05:12:34.968Z,13.03
2023-08-16T05:15:02.078Z,11.53
2023-08-16T05:17:29.287Z,12.40
2023-08-16T05:19:56.423Z,11.73
2023-08-16T05:22:26.112Z,12.03
2023-08-16T05:24:53.329Z,12.20
2023-08-16T05:27:20.509Z,10.20
2023-08-16T05:29:48.153Z,11.47
2023-08-16T05:32:15.406Z,14.03
2023-08-16T05:34:42.591Z,13.17
2023-08-16T05:37:10.475Z,15.70
2023-08-16T05:39:39.601Z,12.88
2023-08-16T05:42:07.979Z,13.47
2023-08-16T05:44:35.106Z,10.60
2023-08-16T05:47:02.237Z,15.20
2023-08-16T05:49:30.036Z,10.17
2023-08-16T05:51:57.198Z,13.55
2023-08-16T05:54:24.989Z,10.90
2023-08-16T05:56:52.282Z,9.67
2023-08-16T05:59:19.501Z,10.70
2023-08-16T06:01:46.598Z,13.93
2023-08-16T06:04:13.868Z,10.63
2023-08-16T06:06:41.169Z,10.23
2023-08-16T06:09:08.327Z,10.83
2023-08-16T06:11:35.444Z,11.43
2023-08-16T06:14:02.553Z,13.87
2023-08-16T06:16:29.708Z,12.47
2023-08-16T06:18:57.211Z,11.83
2023-08-16T06:21:24.430Z,14.20
2023-08-16T06:23:52.170Z,13.57
2023-08-16T06:26:19.290Z,11.43
2023-08-16T06:28:47.254Z,10.47
2023-08-16T06:31:17.569Z,11.40
2023-08-16T06:33:45.086Z,14.00
2023-08-16T06:36:12.545Z,13.47
2023-08-16T06:38:39.775Z,14.13
2023-08-16T06:41:06.960Z,12.23
2023-08-16T06:43:34.063Z,16.20
2023-08-16T06:46:01.276Z,14.90
2023-08-16T06:48:28.730Z,13.23
2023-08-16T06:50:56.188Z,14.93
2023-08-16T06:53:23.376Z,12.33
2023-08-16T06:55:50.511Z,17.93
2023-08-16T06:58:17.948Z,13.57
2023-08-16T07:00:46.648Z,13.80
2023-08-16T07:03:13.991Z,13.17
2023-08-16T07:05:41.249Z,12.13
2023-08-16T07:08:08.503Z,12.83
2023-08-16T07:10:35.672Z,16.20
2023-08-16T07:13:03.779Z,21.00
2023-08-16T07:15:31.110Z,12.57
2023-08-16T07:17:58.379Z,15.10
2023-08-16T07:20:25.575Z,12.13
2023-08-16T07:22:52.675Z,16.10
2023-08-16T07:25:19.999Z,13.97
2023-08-16T07:27:47.175Z,16.67
2023-08-16T07:30:14.593Z,18.00
2023-08-16T07:32:41.843Z,12.53
2023-08-16T07:35:09.884Z,15.07
2023-08-16T07:37:39.543Z,11.63
2023-08-16T07:40:07.076Z,10.90
2023-08-16T07:42:34.911Z,14.07
2023-08-16T07:45:03.797Z,12.53
2023-08-16T07:47:31.132Z,11.37
2023-08-16T07:49:59.945Z,12.80
2023-08-16T07:52:27.718Z,12.23
2023-08-16T07:54:57.069Z,12.97
2023-08-16T07:57:24.676Z,12.33
2023-08-16T07:59:52.306Z,13.47
2023-08-16T08:02:19.428Z,11.90
2023-08-16T08:04:47.226Z,13.27
2023-08-16T08:07:14.539Z,12.37
2023-08-16T08:09:41.737Z,11.60
2023-08-16T08:12:09.000Z,14.67
2023-08-16T08:14:37.588Z,12.57
2023-08-16T08:17:05.072Z,12.43
2023-08-16T08:19:32.618Z,8.80
2023-08-16T08:22:00.725Z,11.13
2023-08-16T08:24:29.136Z,9.77
2023-08-16T08:26:57.883Z,11.40
2023-08-16T08:29:29.551Z,8.10
2023-08-16T08:31:57.219Z,12.00
2023-08-16T08:34:25.515Z,9.90
2023-08-16T08:36:52.706Z,8.40
2023-08-16T08:39:20.874Z,7.57
2023-08-16T08:41:49.323Z,12.23
2023-08-16T08:44:19.946Z,9.53
2023-08-16T08:46:48.040Z,12.93
2023-08-16T08:49:18.957Z,8.60
2023-08-16T08:51:48.275Z,10.07
2023-08-16T08:54:16.431Z,9.47
2023-08-16T08:56:45.587Z,8.90
2023-08-16T08:59:15.349Z,10.47
2023-08-16T09:01:44.097Z,8.40
2023-08-16T09:04:12.402Z,8.77
2023-08-16T09:06:41.464Z,9.13
2023-08-16T09:09:09.029Z,9.17
2023-08-16T09:11:36.128Z,9.77
2023-08-16T09:14:06.136Z,8.53
2023-08-16T09:16:33.346Z,8.90
2023-08-16T09:19:00.719Z,7.80
2023-08-16T09:21:30.231Z,7.10
2023-08-16T09:24:00.991Z,6.83
2023-08-16T09:26:31.562Z,8.13
2023-08-16T09:29:04.068Z,10.33
2023-08-16T09:31:39.129Z,6.87
2023-08-16T09:34:07.506Z,7.32
2023-08-16T09:36:37.637Z,9.38
2023-08-16T09:39:10.439Z,6.30
2023-08-16T09:41:59.944Z,8.77
2023-08-16T09:44:33.394Z,4.82
2023-08-16T09:49:34.511Z,5.30
2023-08-16T09:54:33.030Z,4.83
2023-08-16T10:09:39.150Z,8.38
2023-08-16T10:12:08.025Z,7.47
2023-08-16T10:14:35.407Z,5.47
2023-08-16T10:17:03.526Z,5.32
2023-08-16T10:19:44.063Z,6.85
2023-08-16T10:24:57.072Z,4.38
2023-08-16T10:27:24.922Z,4.93
2023-08-16T10:29:54.529Z,3.35
2023-08-16T10:32:26.570Z,4.93
2023-08-16T10:34:57.805Z,4.82
2023-08-16T10:37:27.188Z,3.50
2023-08-16T10:42:27.824Z,4.25
2023-08-16T10:44:55.151Z,5.13
2023-08-16T10:47:29.461Z,5.28
2023-08-16T10:49:57.426Z,4.32
2023-08-16T10:52:33.970Z,5.45
2023-08-16T10:55:01.342Z,4.88
2023-08-16T10:57:28.642Z,3.05
2023-08-16T11:00:07.173Z,3.90
2023-08-16T11:02:37.608Z,3.80
2023-08-16T11:05:05.141Z,3.97
2023-08-16T11:07:32.334Z,5.03
2023-08-16T11:10:01.309Z,3.90
2023-08-16T11:12:35.733Z,6.05
2023-08-16T11:15:04.967Z,4.75
2023-08-16T11:17:32.191Z,3.60
2023-08-16T11:20:01.952Z,4.05
2023-08-16T11:22:32.421Z,5.88
2023-08-16T11:25:01.843Z,9.20
2023-08-16T11:27:30.126Z,3.70
2023-08-16T11:29:57.492Z,4.30
2023-08-16T11:32:36.372Z,3.22
2023-08-16T11:35:07.949Z,5.30
2023-08-16T11:37:37.519Z,7.10
2023-08-16T11:40:06.696Z,3.65
2023-08-16T11:42:33.922Z,4.18
2023-08-16T11:45:01.124Z,3.13
2023-08-16T11:47:28.306Z,4.55
2023-08-16T11:49:55.556Z,3.20
2023-08-16T11:52:26.058Z,2.58
2023-08-16T11:55:06.308Z,3.65
2023-08-16T11:57:54.451Z,3.70
2023-08-16T12:00:31.112Z,3.75
2023-08-16T12:02:58.602Z,5.68
2023-08-16T12:05:26.572Z,6.00
2023-08-16T12:07:53.997Z,4.15
2023-08-16T12:10:30.739Z,4.10
2023-08-16T12:12:57.926Z,3.95
2023-08-16T12:15:25.923Z,7.43
2023-08-16T12:17:53.611Z,3.67
2023-08-16T12:20:21.172Z,4.53
2023-08-16T12:22:48.322Z,4.47
2023-08-16T12:25:15.633Z,3.85
2023-08-16T12:27:42.785Z,4.13
2023-08-16T12:30:10.064Z,4.53
2023-08-16T12:32:37.226Z,4.35
2023-08-16T12:35:04.534Z,4.50
2023-08-16T12:37:32.983Z,5.35
2023-08-16T12:40:01.672Z,5.80
2023-08-16T12:42:31.169Z,5.03
2023-08-16T12:44:58.260Z,7.82
2023-08-16T12:47:25.770Z,4.25
2023-08-16T12:49:53.139Z,3.20
2023-08-16T12:52:21.373Z,3.40
2023-08-16T12:54:48.477Z,3.65
2023-08-16T12:57:25.410Z,5.78
2023-08-16T12:59:54.354Z,6.25
2023-08-16T13:02:36.338Z,3.40
2023-08-16T13:07:49.948Z,7.40
2023-08-16T13:15:26.354Z,3.88
2023-08-16T13:20:26.913Z,5.95
2023-08-16T13:23:14.442Z,3.75
2023-08-16T13:28:19.350Z,3.70
2023-08-16T13:30:52.476Z,5.90
2023-08-16T13:33:43.294Z,5.07
2023-08-16T13:36:23.104Z,3.13
2023-08-16T13:38:50.664Z,3.78
2023-08-16T13:41:25.021Z,3.45
2023-08-16T13:44:17.679Z,6.50
2023-08-16T13:46:39.720Z,8.38
2023-08-16T13:49:07.074Z,3.28
2023-08-16T13:51:34.209Z,3.53
2023-08-16T13:54:02.700Z,4.07
2023-08-16T13:56:39.468Z,3.47
2023-08-16T13:59:18.894Z,3.75
2023-08-16T14:01:47.111Z,2.70
2023-08-16T14:04:17.377Z,3.22
2023-08-16T14:06:45.701Z,4.32
2023-08-16T14:09:13.113Z,3.38
2023-08-16T14:14:33.919Z,2.75
2023-08-16T14:17:01.099Z,3.28
2023-08-16T14:19:28.745Z,5.78
2023-08-16T14:21:58.413Z,3.17
2023-08-16T14:24:26.987Z,3.53
2023-08-16T14:26:54.515Z,3.20
2023-08-16T14:29:22.332Z,5.32
2023-08-16T14:31:50.615Z,2.63
2023-08-16T14:34:21.952Z,3.50
2023-08-16T14:36:51.896Z,3.90
2023-08-16T14:39:24.209Z,3.55
2023-08-16T14:41:52.692Z,2.70
2023-08-16T14:44:22.161Z,3.05
2023-08-16T14:46:50.960Z,3.67
2023-08-16T14:49:24.883Z,3.95
2023-08-16T14:51:54.395Z,3.47
2023-08-16T14:54:24.165Z,2.88
2023-08-16T14:56:53.120Z,2.95
2023-08-16T14:59:22.055Z,5.50
2023-08-16T15:01:56.725Z,2.78
2023-08-16T15:04:27.963Z,2.95
2023-08-16T15:07:05.155Z,2.88
2023-08-16T15:09:35.264Z,2.67
2023-08-16T15:12:07.222Z,2.70
2023-08-16T15:14:37.768Z,2.55
2023-08-16T15:17:06.097Z,3.80
2023-08-16T15:19:34.758Z,3.70
2023-08-16T15:22:02.904Z,3.67
2023-08-16T15:24:52.092Z,2.63
2023-08-16T15:27:22.161Z,3.33
2023-08-16T15:29:54.946Z,3.53
2023-08-16T15:32:22.120Z,3.08
2023-08-16T15:34:50.771Z,4.40
2023-08-16T15:37:18.929Z,3.78
2023-08-16T15:39:47.385Z,3.28
2023-08-16T15:42:14.516Z,3.35
2023-08-16T15:44:41.697Z,4.40
2023-08-16T15:47:08.828Z,3.30
2023-08-16T15:49:36.255Z,3.78
2023-08-16T15:52:06.025Z,4.03
2023-08-16T15:54:34.128Z,3.40
2023-08-16T15:57:01.738Z,3.28
2023-08-16T15:59:31.713Z,3.20
2023-08-16T16:02:11.223Z,4.15
2023-08-16T16:04:38.397Z,4.30
2023-08-16T16:07:05.525Z,6.20
2023-08-16T16:09:32.743Z,2.88
2023-08-16T16:11:59.977Z,4.65
2023-08-16T16:14:27.082Z,3.83
2023-08-16T16:17:14.253Z,3.33
2023-08-16T16:19:41.354Z,6.03
2023-08-16T16:22:09.818Z,3.15
2023-08-16T16:24:36.906Z,3.42
2023-08-16T16:27:04.162Z,5.22
2023-08-16T16:29:31.266Z,3.85
2023-08-16T16:31:58.390Z,5.80
2023-08-16T16:34:26.297Z,4.53
2023-08-16T16:36:53.431Z,5.93
2023-08-16T16:39:20.792Z,3.03
2023-08-16T16:41:47.886Z,5.63
2023-08-16T16:44:15.053Z,4.75
2023-08-16T16:46:42.612Z,7.00
2023-08-16T16:49:09.790Z,5.32
2023-08-16T16:51:37.917Z,3.33
2023-08-16T16:54:05.097Z,9.43
2023-08-16T16:56:33.095Z,4.65
2023-08-16T16:59:00.665Z,4.13
2023-08-16T17:01:28.229Z,3.85
2023-08-16T17:03:56.520Z,7.40
2023-08-16T17:06:23.910Z,3.75
2023-08-16T17:08:51.019Z,3.05
2023-08-16T17:11:18.185Z,3.63
2023-08-16T17:13:45.308Z,4.18
2023-08-16T17:16:16.700Z,3.20
2023-08-16T17:18:45.096Z,3.78
2023-08-16T17:21:15.976Z,2.58
2023-08-16T17:23:47.336Z,3.00
2023-08-16T17:26:14.831Z,4.38
2023-08-16T17:28:42.270Z,3.30
2023-08-16T17:31:10.030Z,4.32
2023-08-16T17:33:37.252Z,4.82
2023-08-16T17:36:13.686Z,3.65
2023-08-16T17:38:44.862Z,4.78
2023-08-16T17:41:22.358Z,3.13
2023-08-16T17:43:50.743Z,4.78
2023-08-16T17:46:18.197Z,4.72
2023-08-16T17:48:45.850Z,2.70
2023-08-16T17:51:14.818Z,3.58
2023-08-16T17:53:42.738Z,4.18
2023-08-16T17:56:09.897Z,8.25
2023-08-16T17:58:37.413Z,3.45
2023-08-16T18:01:08.738Z,4.10
2023-08-16T18:03:36.125Z,4.35
2023-08-16T18:06:04.049Z,4.22
2023-08-16T18:08:31.192Z,3.42
2023-08-16T18:10:58.327Z,2.28
2023-08-16T18:13:25.474Z,5.07
2023-08-16T18:15:54.130Z,2.97
2023-08-16T18:18:21.460Z,2.60
2023-08-16T18:20:55.187Z,3.70
2023-08-16T18:23:23.877Z,2.83
2023-08-16T18:25:51.421Z,3.55
2023-08-16T18:28:20.355Z,2.65
2023-08-16T18:30:50.578Z,2.72
2023-08-16T18:33:18.440Z,3.78
2023-08-16T18:35:46.251Z,3.08
2023-08-16T18:38:13.536Z,2.90
2023-08-16T18:40:44.554Z,6.72
2023-08-16T18:43:11.768Z,5.18
2023-08-16T18:45:39.645Z,4.90
2023-08-16T18:48:06.876Z,3.28
2023-08-16T18:50:33.986Z,2.88
2023-08-16T18:53:01.257Z,2.83
2023-08-16T18:55:28.405Z,3.17
2023-08-16T18:57:55.575Z,5.40
2023-08-16T19:00:22.868Z,5.03
2023-08-16T19:02:50.142Z,4.45
2023-08-16T19:05:17.367Z,3.03
2023-08-16T19:07:44.751Z,3.05
2023-08-16T19:10:12.084Z,4.05
2023-08-16T19:12:39.460Z,3.42
2023-08-16T19:15:06.870Z,3.92
2023-08-16T19:17:34.055Z,4.85
2023-08-16T19:20:01.261Z,5.22
2023-08-16T19:22:28.483Z,3.05
2023-08-16T19:24:55.576Z,3.53
2023-08-16T19:27:24.330Z,2.83
2023-08-16T19:29:55.271Z,2.58
2023-08-16T19:32:22.886Z,2.95
2023-08-16T19:34:50.248Z,7.28
2023-08-16T19:37:18.383Z,3.30
2023-08-16T19:39:45.628Z,7.18
2023-08-16T19:42:12.915Z,6.53
2023-08-16T19:44:42.578Z,3.45
2023-08-16T19:47:09.770Z,3.13
2023-08-16T19:49:38.717Z,2.83
2023-08-16T19:52:07.736Z,8.73
2023-08-16T19:54:35.049Z,6.95
2023-08-16T19:57:03.150Z,5.00
2023-08-16T19:59:30.612Z,4.38
2023-08-16T20:01:57.817Z,4.03
2023-08-16T20:04:25.012Z,4.55
2023-08-16T20:06:52.549Z,2.22
2023-08-16T20:09:20.812Z,4.90
2023-08-16T20:11:47.973Z,5.35
2023-08-16T20:14:15.082Z,4.03
2023-08-16T20:16:42.229Z,2.35
2023-08-16T20:19:09.345Z,6.25
2023-08-16T20:21:36.585Z,3.25
2023-08-16T20:24:03.712Z,2.95
2023-08-16T20:26:31.158Z,2.15
2023-08-16T20:28:58.295Z,3.88
2023-08-16T20:31:25.607Z,2.03
2023-08-16T20:33:53.260Z,4.65
2023-08-16T20:36:20.754Z,3.08
2023-08-16T20:38:47.872Z,1.90
2023-08-16T20:41:14.977Z,2.85
2023-08-16T20:43:44.013Z,3.13
2023-08-16T20:46:11.190Z,4.50
2023-08-16T20:48:38.288Z,2.58
2023-08-16T20:51:05.406Z,4.13
2023-08-16T20:53:32.519Z,4.93
2023-08-16T20:55:59.672Z,4.05
2023-08-16T20:58:26.778Z,2.72
2023-08-16T21:00:53.984Z,3.22
2023-08-16T21:03:21.107Z,6.05
2023-08-16T21:05:48.219Z,5.25
2023-08-16T21:08:15.372Z,3.92
2023-08-16T21:10:42.569Z,2.42
2023-08-16T21:13:09.730Z,3.28
2023-08-16T21:15:36.957Z,3.00
2023-08-16T21:18:04.243Z,4.63
2023-08-16T21:20:31.591Z,2.67
2023-08-16T21:22:58.702Z,5.10
2023-08-16T21:25:25.845Z,3.20
2023-08-16T21:27:53.003Z,3.55
2023-08-16T21:30:20.132Z,2.83
2023-08-16T21:32:47.400Z,6.97
2023-08-16T21:35:17.366Z,5.50
2023-08-16T21:37:45.129Z,6.30
2023-08-16T21:40:12.593Z,3.03
2023-08-16T21:42:40.066Z,3.33
2023-08-16T21:45:07.648Z,4.07
2023-08-16T21:47:34.799Z,3.53
2023-08-16T21:50:02.162Z,2.57
2023-08-16T21:52:29.537Z,1.77
2023-08-16T21:54:56.619Z,3.90
2023-08-16T21:57:25.576Z,4.22
2023-08-16T21:59:56.392Z,4.73
2023-08-16T22:02:23.834Z,4.47
2023-08-16T22:04:51.098Z,3.63
2023-08-16T22:07:18.347Z,2.45
2023-08-16T22:09:45.441Z,5.95
2023-08-16T22:12:16.652Z,8.00
2023-08-16T22:14:45.411Z,2.13
2023-08-16T22:17:12.536Z,4.47
2023-08-16T22:19:39.644Z,2.33
2023-08-16T22:22:06.980Z,2.67
2023-08-16T22:24:34.147Z,5.32
2023-08-16T22:27:01.235Z,3.63
2023-08-16T22:29:28.987Z,3.50
2023-08-16T22:31:56.177Z,2.50
2023-08-16T22:34:23.435Z,5.33
2023-08-16T22:36:50.775Z,4.00
2023-08-16T22:39:18.755Z,5.97
2023-08-16T22:41:45.928Z,3.90
2023-08-16T22:44:13.001Z,3.63
2023-08-16T22:46:40.129Z,4.70
2023-08-16T22:49:07.517Z,4.87
2023-08-16T22:51:35.979Z,4.10
2023-08-16T22:54:03.160Z,3.67
2023-08-16T22:56:30.457Z,4.83
2023-08-16T22:58:57.568Z,2.77
2023-08-16T23:01:24.734Z,2.80
2023-08-16T23:03:53.400Z,4.73
2023-08-16T23:06:20.604Z,5.47
2023-08-16T23:08:49.145Z,2.17
2023-08-16T23:11:18.385Z,4.63
2023-08-16T23:13:45.491Z,3.17
2023-08-16T23:16:12.751Z,3.90
2023-08-16T23:18:40.074Z,1.80
2023-08-16T23:21:09.554Z,4.77
2023-08-16T23:23:36.828Z,5.10
2023-08-16T23:26:04.088Z,2.97
2023-08-16T23:28:31.331Z,4.60
2023-08-16T23:30:58.455Z,4.27
2023-08-16T23:33:26.649Z,4.73
2023-08-16T23:35:53.807Z,5.33
2023-08-16T23:38:20.922Z,3.90
2023-08-16T23:40:47.998Z,4.73
2023-08-16T23:43:17.729Z,6.33
2023-08-16T23:45:45.945Z,5.17
2023-08-16T23:48:13.995Z,4.53
2023-08-16T23:50:41.899Z,3.10
2023-08-16T23:53:10.559Z,4.37
2023-08-16T23:55:37.680Z,4.67
2023-08-16T23:58:05.160Z,4.87
